Time;durP1;ratioP1;P1;durP2;ratioP2;P2;SDS_P1;SDS_P2;PMS_P1;PMS_P2;Temp;Humidity;BMP_temperature;BMP_pressure;BME280_temperature;BME280_humidity;BME280_pressure;Samples;Min_cycle;Max_cycle;Signal;HPM_P1;HPM_P2
2023/05/01 00:02:03;;;;;;;24.80;19.67;;;;;;;17.05;73.10;101077.97;4938620;28;20153;-82
2023/05/01 00:04:32;;;;;;;22.95;20.00;;;;;;;17.22;73.02;101101.13;4936482;28;20554;-82
2023/05/01 00:07:03;;;;;;;21.30;18.85;;;;;;;17.09;73.12;101073.97;4932700;28;20536;-83
2023/05/01 00:09:38;;;;;;;26.23;18.45;;;;;;;17.25;72.79;101095.41;4926144;28;20046;-82
2023/05/01 00:12:05;;;;;;;31.20;20.70;;;;;;;17.21;73.25;101094.09;4916100;28;20470;-81
2023/05/01 00:14:34;;;;;;;44.30;21.13;;;;;;;16.82;73.19;101022.34;4920217;28;20057;-83
2023/05/01 00:17:05;;;;;;;36.33;21.98;;;;;;;17.04;73.54;101054.84;4923702;28;20046;-81
2023/05/01 00:19:31;;;;;;;34.53;19.58;;;;;;;17.02;73.75;101055.00;4902029;28;20517;-82
2023/05/01 00:22:02;;;;;;;36.92;20.42;;;;;;;17.10;73.85;101081.00;4920205;28;21204;-82
2023/05/01 00:24:29;;;;;;;37.20;20.80;;;;;;;16.94;73.67;101049.63;4918090;28;20446;-82
2023/05/01 00:26:56;;;;;;;29.70;20.52;;;;;;;17.06;73.84;101074.28;4903673;28;20106;-82
2023/05/01 00:29:22;;;;;;;25.38;19.48;;;;;;;16.28;74.14;100964.78;4909456;28;20081;-82
2023/05/01 00:31:56;;;;;;;30.17;20.10;;;;;;;16.81;74.56;101060.84;4921127;28;20299;-83
2023/05/01 00:34:33;;;;;;;24.70;19.70;;;;;;;16.72;75.11;101039.53;4921478;28;20137;-83
2023/05/01 00:37:01;;;;;;;26.55;19.45;;;;;;;16.75;75.38;101058.81;4917371;28;20477;-83
2023/05/01 00:39:28;;;;;;;28.02;18.85;;;;;;;16.54;75.52;101026.28;4939300;28;20141;-82
2023/05/01 00:41:55;;;;;;;23.42;17.77;;;;;;;16.65;75.74;101039.34;4928276;28;20042;-82
2023/05/01 00:44:21;;;;;;;22.58;18.30;;;;;;;16.73;75.70;101054.63;4920309;28;20377;-82
2023/05/01 00:46:48;;;;;;;24.55;19.20;;;;;;;16.33;75.77;100992.75;4928291;28;20081;-81
2023/05/01 00:49:21;;;;;;;22.70;18.30;;;;;;;16.53;76.19;101019.22;4912624;28;20268;-81
2023/05/01 00:51:52;;;;;;;27.33;19.90;;;;;;;16.74;76.09;101062.50;4921280;28;20811;-82
2023/05/01 00:54:27;;;;;;;26.52;19.60;;;;;;;16.30;76.55;100989.56;4918728;28;20437;-81
2023/05/01 00:57:06;;;;;;;21.33;18.65;;;;;;;16.45;76.52;101012.84;4932038;28;20050;-83
2023/05/01 00:59:38;;;;;;;20.58;18.35;;;;;;;16.58;76.86;101038.38;4920218;28;20384;-83
2023/05/01 01:02:05;;;;;;;20.52;17.63;;;;;;;16.49;76.75;101017.91;4917362;28;20659;-82
2023/05/01 01:04:36;;;;;;;21.48;16.90;;;;;;;16.52;76.33;101022.94;4931298;28;20503;-83
2023/05/01 01:07:20;;;;;;;20.40;17.10;;;;;;;16.75;76.25;101056.16;4932294;28;20065;-83
2023/05/01 01:10:29;;;;;;;23.08;18.77;;;;;;;16.76;76.38;101057.81;4887429;28;20150;-84
2023/05/01 01:13:03;;;;;;;22.40;19.23;;;;;;;16.76;75.99;101051.63;4866286;28;20066;-82
2023/05/01 01:15:44;;;;;;;28.83;21.55;;;;;;;16.70;75.77;101055.81;4875315;29;20359;-82
2023/05/01 01:18:27;;;;;;;26.48;21.30;;;;;;;16.36;75.67;101003.16;4883486;28;20319;-82
2023/05/01 01:21:05;;;;;;;26.15;19.90;;;;;;;16.41;75.22;100998.13;4876878;28;20058;-82
2023/05/01 01:23:56;;;;;;;23.48;18.45;;;;;;;16.76;74.70;101063.16;4872507;29;20047;-83
2023/05/01 01:26:30;;;;;;;23.42;19.15;;;;;;;16.72;75.41;101063.66;4886339;28;20059;-82
2023/05/01 01:29:36;;;;;;;22.38;18.55;;;;;;;16.69;75.74;101056.78;4867699;28;20762;-82
2023/05/01 01:32:42;;;;;;;21.10;17.15;;;;;;;16.68;75.96;101065.84;4884336;29;20086;-83
2023/05/01 01:35:30;;;;;;;21.30;18.15;;;;;;;16.64;75.71;101062.66;4871593;29;20055;-82
2023/05/01 01:38:23;;;;;;;21.10;17.90;;;;;;;16.62;75.78;101063.81;4890067;28;20102;-82
2023/05/01 01:41:27;;;;;;;23.48;20.83;;;;;;;16.64;75.33;101061.81;4885183;28;20101;-82
2023/05/01 01:44:19;;;;;;;23.98;20.05;;;;;;;16.64;75.42;101054.59;4892614;28;20263;-82
2023/05/01 01:46:53;;;;;;;23.67;19.65;;;;;;;16.42;75.50;101018.56;4900860;28;20494;-82
2023/05/01 01:49:30;;;;;;;25.17;21.17;;;;;;;16.68;75.41;101049.75;4882999;28;20127;-82
2023/05/01 01:52:02;;;;;;;27.23;21.85;;;;;;;16.66;75.02;101051.78;4886596;28;20398;-83
2023/05/01 01:54:41;;;;;;;26.25;20.83;;;;;;;16.71;74.58;101046.75;4899716;28;20266;-83
2023/05/01 01:57:17;;;;;;;28.38;22.15;;;;;;;16.59;74.91;101034.66;4893263;28;20581;-82
2023/05/01 01:59:56;;;;;;;25.38;20.83;;;;;;;16.53;75.37;101024.59;4875981;28;20117;-83
2023/05/01 02:02:40;;;;;;;29.60;21.27;;;;;;;16.62;75.57;101045.88;4915040;28;20054;-81
2023/05/01 02:05:13;;;;;;;26.25;21.95;;;;;;;16.59;75.72;101048.06;4931930;28;20132;-83
2023/05/01 02:07:42;;;;;;;26.30;21.85;;;;;;;16.56;75.82;101049.25;4916579;28;20311;-83
2023/05/01 02:10:11;;;;;;;23.35;19.85;;;;;;;16.40;75.50;101025.91;4931232;28;20461;-83
2023/05/01 02:12:46;;;;;;;26.60;21.85;;;;;;;16.55;75.39;101054.75;4924700;28;20374;-83
2023/05/01 02:15:23;;;;;;;27.75;20.60;;;;;;;16.53;75.71;101051.41;4912600;28;20052;-84
2023/05/01 02:17:51;;;;;;;26.33;22.00;;;;;;;16.43;75.31;101038.13;4897805;29;20051;-82
2023/05/01 02:20:20;;;;;;;24.27;20.42;;;;;;;16.54;75.50;101053.09;4910464;28;20122;-83
2023/05/01 02:22:50;;;;;;;28.10;21.83;;;;;;;16.53;75.10;101054.06;4900781;28;20051;-83
2023/05/01 02:25:21;;;;;;;29.35;21.88;;;;;;;16.39;75.25;101029.59;4931351;28;20047;-82
2023/05/01 02:28:13;;;;;;;25.83;22.40;;;;;;;16.56;74.86;101051.91;4910787;28;20612;-83
2023/05/01 02:30:40;;;;;;;25.88;22.38;;;;;;;16.28;74.81;101005.78;4925190;28;20867;-82
2023/05/01 02:33:09;;;;;;;30.23;21.98;;;;;;;16.32;75.16;101012.50;4902657;29;20043;-84
2023/05/01 02:35:41;;;;;;;26.92;22.67;;;;;;;16.28;75.38;101005.78;4898917;29;20587;-82
2023/05/01 02:38:15;;;;;;;27.55;22.50;;;;;;;15.95;75.45;100952.16;4916704;28;20051;-82
2023/05/01 02:40:57;;;;;;;28.05;23.25;;;;;;;16.39;75.32;101018.88;4911772;29;20051;-82
2023/05/01 02:43:31;;;;;;;28.25;22.40;;;;;;;16.54;75.25;101042.38;4896252;28;20220;-83
2023/05/01 02:46:03;;;;;;;32.95;24.10;;;;;;;16.58;75.10;101035.69;4909897;29;20043;-82
2023/05/01 02:48:32;;;;;;;29.30;23.83;;;;;;;16.29;75.22;101004.81;4891505;28;20351;-83
2023/05/01 02:51:00;;;;;;;27.83;23.52;;;;;;;16.34;75.23;101009.69;4883563;28;20066;-82
2023/05/01 02:53:31;;;;;;;29.27;24.38;;;;;;;16.35;75.30;101017.53;4911924;29;20051;-82
2023/05/01 02:55:58;;;;;;;28.67;24.45;;;;;;;16.31;75.62;101004.63;4907837;29;20362;-82
2023/05/01 02:58:31;;;;;;;32.45;24.75;;;;;;;16.36;75.25;100996.94;4905105;29;20572;-81
2023/05/01 03:00:59;;;;;;;28.90;23.90;;;;;;;16.49;75.11;101017.91;4914272;29;20043;-82
2023/05/01 03:03:26;;;;;;;33.67;25.20;;;;;;;16.37;74.83;101003.97;4944722;28;20071;-84
2023/05/01 03:06:01;;;;;;;32.50;24.33;;;;;;;16.34;75.12;101010.50;4932523;28;20051;-84
2023/05/01 03:08:27;;;;;;;34.30;25.33;;;;;;;16.27;75.12;100993.41;4944019;28;20051;-84
2023/05/01 03:10:54;;;;;;;31.92;25.00;;;;;;;16.43;74.85;101030.97;4938488;28;20532;-83
2023/05/01 03:13:21;;;;;;;32.25;23.88;;;;;;;16.42;74.92;101034.63;4950227;28;20106;-81
2023/05/01 03:15:54;;;;;;;31.23;23.42;;;;;;;16.00;74.91;100963.22;4938031;28;20054;-80
2023/05/01 03:18:30;;;;;;;29.15;23.52;;;;;;;16.31;74.95;101013.53;4940050;28;20208;-81
2023/05/01 03:20:57;;;;;;;27.58;24.48;;;;;;;16.37;75.11;101028.94;4941103;28;20559;-82
2023/05/01 03:23:24;;;;;;;28.92;22.20;;;;;;;16.35;74.94;101027.41;4938590;28;20079;-80
2023/05/01 03:25:51;;;;;;;37.10;23.63;;;;;;;15.73;74.79;100926.00;4936415;28;20109;-82
2023/05/01 03:28:22;;;;;;;28.17;22.95;;;;;;;16.21;74.79;100994.06;4940332;28;20130;-82
2023/05/01 03:30:52;;;;;;;28.30;22.42;;;;;;;16.39;74.75;101034.97;4937558;28;20430;-83
2023/05/01 03:33:19;;;;;;;32.13;22.85;;;;;;;16.39;74.62;101029.59;4938004;28;20061;-83
2023/05/01 03:35:57;;;;;;;26.00;22.60;;;;;;;16.28;74.61;101016.50;4936359;28;20113;-82
2023/05/01 03:38:25;;;;;;;27.73;22.25;;;;;;;16.23;74.78;101002.78;4944680;28;20058;-81
2023/05/01 03:40:52;;;;;;;27.95;23.23;;;;;;;16.20;74.89;101001.25;4927464;28;20043;-81
2023/05/01 03:43:22;;;;;;;26.55;21.88;;;;;;;16.37;74.99;101033.47;4925081;28;20229;-82
2023/05/01 03:45:52;;;;;;;28.13;23.25;;;;;;;16.11;74.85;100988.00;4927889;28;20537;-83
2023/05/01 03:48:20;;;;;;;26.77;23.08;;;;;;;16.12;74.99;100997.75;4929370;28;20061;-82
2023/05/01 03:50:46;;;;;;;24.10;21.55;;;;;;;16.29;75.31;101022.69;4932649;28;20063;-81
2023/05/01 03:53:18;;;;;;;;;;;;;;;16.28;74.79;101024.53;4936545;28;20065;-82
2023/05/01 03:55:53;;;;;;;23.27;20.63;;;;;;;15.66;74.37;100920.41;4924840;28;20177;-82
2023/05/01 03:58:21;;;;;;;26.58;20.77;;;;;;;16.20;74.09;101008.47;4932227;28;20255;-83
2023/05/01 04:00:55;;;;;;;23.67;19.08;;;;;;;15.79;74.01;100952.94;4943321;28;20054;-83
2023/05/01 04:03:22;;;;;;;20.80;18.10;;;;;;;16.08;73.26;100977.63;4936566;28;20501;-83
2023/05/01 04:05:49;;;;;;;20.55;17.08;;;;;;;16.20;73.57;101011.13;4941908;28;20420;-83
2023/05/01 04:08:21;;;;;;;27.77;17.83;;;;;;;15.49;72.98;100887.41;4936494;28;20126;-82
2023/05/01 04:10:51;;;;;;;19.45;16.60;;;;;;;16.05;72.65;100991.34;4934257;28;20385;-82
2023/05/01 04:13:22;;;;;;;22.55;16.85;;;;;;;16.17;72.97;101019.50;4935501;28;20062;-82
2023/05/01 04:15:54;;;;;;;21.70;17.23;;;;;;;16.20;72.75;101014.66;4938823;28;20500;-82
2023/05/01 04:18:30;;;;;;;21.13;16.65;;;;;;;16.18;72.36;101003.25;4941627;28;20384;-82
2023/05/01 04:20:56;;;;;;;16.88;14.68;;;;;;;15.95;72.39;100972.75;4929151;28;20074;-82
2023/05/01 04:23:25;;;;;;;21.25;14.63;;;;;;;16.00;71.61;100983.81;4954100;28;20065;-82
2023/05/01 04:25:52;;;;;;;16.65;13.38;;;;;;;15.48;71.56;100909.78;4969931;28;20051;-82
2023/05/01 04:28:29;;;;;;;20.45;14.73;;;;;;;16.03;71.11;101011.09;4953058;28;20192;-82
2023/05/01 04:30:56;;;;;;;15.73;14.13;;;;;;;16.05;71.31;101020.81;4972146;28;20121;-82
2023/05/01 04:33:23;;;;;;;18.90;13.95;;;;;;;15.88;71.26;101012.72;4971514;28;20057;-82
2023/05/01 04:36:02;;;;;;;20.25;13.13;;;;;;;15.98;71.26;101026.78;4957226;28;20121;-82
2023/05/01 04:38:30;;;;;;;15.05;13.45;;;;;;;15.87;71.61;101016.38;4943264;28;20050;-82
2023/05/01 04:40:57;;;;;;;18.55;13.38;;;;;;;15.81;71.50;101022.38;4951139;28;20186;-83
2023/05/01 04:43:24;;;;;;;14.57;12.45;;;;;;;15.75;71.41;101007.81;4938926;28;20039;-83
2023/05/01 04:45:51;;;;;;;18.55;11.05;;;;;;;15.83;71.21;101028.41;4948334;28;20528;-80
2023/05/01 04:48:22;;;;;;;12.07;10.77;;;;;;;15.74;71.14;101008.78;4936184;28;20039;-83
2023/05/01 04:50:52;;;;;;;16.27;10.88;;;;;;;15.88;70.87;101031.44;4949309;28;20054;-81
2023/05/01 04:53:20;;;;;;;12.85;9.55;;;;;;;15.68;70.52;100993.34;4927499;28;20125;-82
2023/05/01 04:55:48;;;;;;;11.98;9.35;;;;;;;15.95;69.86;101032.47;4934368;28;20464;-82
2023/05/01 04:58:14;;;;;;;12.48;9.70;;;;;;;15.49;70.32;100989.06;4936582;28;20557;-82
2023/05/01 05:00:41;;;;;;;14.65;10.05;;;;;;;15.77;70.12;101023.69;4944457;28;20042;-82
2023/05/01 05:03:10;;;;;;;15.40;9.15;;;;;;;15.68;69.88;101025.47;4969981;28;20488;-82
2023/05/01 05:05:38;;;;;;;14.25;8.98;;;;;;;15.76;69.86;101044.28;4941776;28;20138;-81
2023/05/01 05:08:05;;;;;;;11.18;8.35;;;;;;;15.72;70.13;101042.91;4937718;28;20154;-82
2023/05/01 05:10:32;;;;;;;17.52;8.75;;;;;;;15.16;69.75;100956.78;4933460;28;20851;-82
2023/05/01 05:13:01;;;;;;;10.00;7.63;;;;;;;15.57;69.67;101018.53;4938096;28;20043;-83
2023/05/01 05:15:28;;;;;;;12.35;8.20;;;;;;;15.58;68.99;101008.66;4914381;28;20105;-82
2023/05/01 05:17:55;;;;;;;13.50;7.90;;;;;;;15.67;69.18;101030.97;4941711;28;20055;-82
2023/05/01 05:20:28;;;;;;;9.07;7.85;;;;;;;15.64;68.82;101015.25;4940766;28;20592;-83
2023/05/01 05:22:54;;;;;;;11.10;7.70;;;;;;;15.68;69.05;101029.97;4956254;28;20145;-82
2023/05/01 05:25:21;;;;;;;9.65;7.57;;;;;;;15.17;68.79;100937.06;4954502;28;20397;-82
2023/05/01 05:27:48;;;;;;;9.32;7.32;;;;;;;15.91;68.74;101052.53;4941184;28;20397;-82
2023/05/01 05:30:15;;;;;;;9.48;7.40;;;;;;;15.93;68.51;101063.94;4933726;28;20125;-82
2023/05/01 05:32:43;;;;;;;11.48;8.43;;;;;;;14.85;68.27;100899.41;4922688;28;20110;-81
2023/05/01 05:35:10;;;;;;;10.60;6.97;;;;;;;15.87;68.80;101061.03;4932757;28;20097;-82
2023/05/01 05:37:38;;;;;;;11.20;7.40;;;;;;;15.91;68.40;101060.56;4928236;28;20057;-80
2023/05/01 05:40:06;;;;;;;7.95;6.82;;;;;;;15.92;68.41;101066.75;4906443;28;20276;-81
2023/05/01 05:42:33;;;;;;;10.82;7.68;;;;;;;15.96;68.18;101060.09;4954969;28;20135;-83
2023/05/01 05:44:59;;;;;;;9.32;7.82;;;;;;;15.95;67.98;101064.63;4929669;28;20054;-83
2023/05/01 05:47:32;;;;;;;10.98;7.35;;;;;;;15.94;67.88;101065.59;4909968;28;20347;-81
2023/05/01 05:50:06;;;;;;;10.43;7.40;;;;;;;15.65;68.34;101033.78;4950253;28;20054;-81
2023/05/01 05:52:33;;;;;;;11.40;7.68;;;;;;;15.87;68.57;101071.75;4933936;28;20447;-81
2023/05/01 05:55:00;;;;;;;8.43;6.80;;;;;;;15.85;68.09;101063.03;4948166;28;20066;-81
2023/05/01 05:57:27;;;;;;;8.73;7.05;;;;;;;15.85;67.67;101050.50;4952668;28;20061;-81
2023/05/01 05:59:54;;;;;;;8.70;7.60;;;;;;;16.10;67.55;101074.72;4938767;28;20078;-82
2023/05/01 06:02:21;;;;;;;10.52;7.30;;;;;;;16.01;67.47;101058.59;4942304;28;20233;-81
2023/05/01 06:04:55;;;;;;;10.02;7.35;;;;;;;16.00;67.31;101067.66;4933790;28;20070;-83
2023/05/01 06:07:23;;;;;;;9.52;7.35;;;;;;;15.83;67.51;101049.84;4919040;28;20051;-82
2023/05/01 06:09:50;;;;;;;13.05;7.45;;;;;;;15.93;67.73;101071.97;4957288;28;20075;-83
2023/05/01 06:12:20;;;;;;;11.55;7.72;;;;;;;16.01;67.79;101066.63;4960256;28;20660;-83
2023/05/01 06:14:57;;;;;;;17.38;7.55;;;;;;;15.92;67.49;101048.88;4947219;28;20054;-82
2023/05/01 06:17:24;;;;;;;;;;;;;;;15.94;67.63;101068.28;4920462;28;20494;-82
2023/05/01 06:19:52;;;;;;;8.25;7.00;;;;;;;15.71;67.81;101027.84;4929142;28;19929;-82
2023/05/01 06:22:19;;;;;;;10.48;7.85;;;;;;;16.02;68.11;101073.69;4935701;28;20219;-81
2023/05/01 06:24:55;;;;;;;8.38;7.57;;;;;;;16.17;67.38;101079.28;4913994;28;20247;-81
2023/05/01 06:27:22;;;;;;;10.30;7.50;;;;;;;16.23;67.20;101072.41;4966041;28;20057;-81
2023/05/01 06:29:49;;;;;;;11.15;7.43;;;;;;;16.27;67.21;101078.31;4949447;28;21067;-81
2023/05/01 06:32:16;;;;;;;8.98;7.50;;;;;;;16.33;66.85;101075.78;4972029;28;20508;-82
2023/05/01 06:34:42;;;;;;;8.65;7.53;;;;;;;16.30;66.79;101056.53;4942161;28;20042;-81
2023/05/01 06:37:09;;;;;;;15.32;7.80;;;;;;;16.43;66.38;101064.94;4937268;28;20469;-81
2023/05/01 06:39:36;;;;;;;10.15;7.35;;;;;;;16.46;65.97;101059.28;4957183;28;20052;-81
2023/05/01 06:42:03;;;;;;;7.65;6.65;;;;;;;16.61;65.72;101078.22;4962180;28;20458;-82
2023/05/01 06:44:30;;;;;;;9.10;6.55;;;;;;;16.48;64.97;101021.56;4955495;28;20563;-83
2023/05/01 06:47:06;;;;;;;11.50;7.28;;;;;;;16.76;65.25;101084.63;4921882;28;20468;-81
2023/05/01 06:49:40;;;;;;;11.13;7.15;;;;;;;16.39;64.74;101018.88;4930757;28;20163;-80
2023/05/01 06:52:06;;;;;;;9.80;6.57;;;;;;;16.86;64.73;101090.69;4932839;28;20055;-82
2023/05/01 06:54:35;;;;;;;12.95;6.70;;;;;;;16.51;64.33;101011.38;4924400;28;20054;-82
2023/05/01 06:57:03;;;;;;;9.18;6.75;;;;;;;16.27;63.38;100961.25;4959267;28;20080;-83
2023/05/01 06:59:30;;;;;;;9.07;7.05;;;;;;;16.91;63.63;101063.38;4912065;29;20330;-82
2023/05/01 07:02:00;;;;;;;11.00;6.78;;;;;;;16.26;63.95;100964.09;4906890;28;20061;-85
2023/05/01 07:04:27;;;;;;;11.05;7.13;;;;;;;16.15;64.06;100943.84;4922564;28;20039;-81
2023/05/01 07:06:54;;;;;;;10.75;7.90;;;;;;;17.02;63.67;101089.06;4922550;28;20560;-82
2023/05/01 07:09:21;;;;;;;9.15;7.28;;;;;;;16.92;63.41;101069.56;4953167;28;20314;-79
2023/05/01 07:11:48;;;;;;;11.38;7.85;;;;;;;16.85;63.54;101059.53;4960972;28;20480;-79
2023/05/01 07:14:17;;;;;;;9.82;7.60;;;;;;;17.10;63.09;101097.09;4957409;28;20109;-80
2023/05/01 07:16:48;;;;;;;13.40;7.93;;;;;;;17.17;63.48;101100.78;4952747;28;20113;-81
2023/05/01 07:19:17;;;;;;;8.88;7.88;;;;;;;16.26;62.99;100937.31;4963218;28;20145;-80
2023/05/01 07:21:44;;;;;;;9.60;8.63;;;;;;;17.30;62.87;101101.09;4937404;28;20778;-79
2023/05/01 07:24:12;;;;;;;12.32;9.63;;;;;;;17.37;62.90;101097.75;4938089;28;20100;-81
2023/05/01 07:26:40;;;;;;;12.18;9.20;;;;;;;17.36;62.66;101096.94;4964621;28;20416;-79
2023/05/01 07:29:08;;;;;;;13.07;8.77;;;;;;;17.38;62.02;101094.06;4972277;28;20050;-79
2023/05/01 07:31:36;;;;;;;11.30;9.32;;;;;;;17.34;61.95;101092.75;4940923;28;20358;-79
2023/05/01 07:34:03;;;;;;;10.15;8.68;;;;;;;17.36;61.81;101091.56;4942728;28;20416;-80
2023/05/01 07:36:30;;;;;;;11.05;8.98;;;;;;;17.07;62.12;101070.59;4964450;28;20145;-79
2023/05/01 07:38:56;;;;;;;12.27;9.30;;;;;;;16.63;62.40;100993.97;4933460;28;20458;-78
2023/05/01 07:41:26;;;;;;;8.98;8.07;;;;;;;17.28;61.71;101073.63;4934516;28;20172;-81
2023/05/01 07:43:53;;;;;;;9.65;7.72;;;;;;;17.38;61.67;101102.97;4915032;28;20393;-79
2023/05/01 07:46:22;;;;;;;8.38;7.55;;;;;;;17.38;61.44;101104.78;4916931;28;20488;-79
2023/05/01 07:48:49;;;;;;;8.45;7.60;;;;;;;16.86;60.50;101004.88;4945994;28;20519;-79
2023/05/01 07:51:20;;;;;;;9.27;6.70;;;;;;;17.24;60.49;101066.06;4938047;28;20113;-81
2023/05/01 07:53:53;;;;;;;10.43;8.60;;;;;;;17.49;59.95;101096.41;4945659;28;20488;-79
2023/05/01 07:56:23;;;;;;;9.02;7.22;;;;;;;17.54;59.73;101099.41;4954171;28;20505;-79
2023/05/01 07:58:49;;;;;;;9.48;7.72;;;;;;;17.43;59.95;101075.63;4960919;28;20054;-81
2023/05/01 08:01:17;;;;;;;11.82;7.60;;;;;;;17.33;59.64;101053.47;4942007;28;20105;-80
2023/05/01 08:03:48;;;;;;;10.48;6.85;;;;;;;17.37;59.51;101052.13;4897275;28;20417;-81
2023/05/01 08:06:19;;;;;;;9.98;7.05;;;;;;;17.72;59.18;101105.44;4944349;28;20112;-81
2023/05/01 08:08:45;;;;;;;9.35;7.45;;;;;;;17.53;59.26;101087.00;4951050;28;20085;-80
2023/05/01 08:11:12;;;;;;;8.32;7.53;;;;;;;17.19;58.59;101036.25;4949527;28;20058;-81
2023/05/01 08:13:43;;;;;;;9.40;7.55;;;;;;;17.30;58.58;101038.56;4935248;28;20420;-82
2023/05/01 08:16:10;;;;;;;15.90;10.85;;;;;;;17.28;58.42;101033.38;4955687;28;20055;-82
2023/05/01 08:18:37;;;;;;;16.17;12.63;;;;;;;17.88;58.82;101109.13;4948275;28;20535;-81
2023/05/01 08:21:06;;;;;;;23.90;16.02;;;;;;;17.45;58.49;101023.44;4939716;28;20493;-79
2023/05/01 08:23:33;;;;;;;24.02;17.75;;;;;;;17.77;58.54;101083.44;4938309;28;20479;-81
2023/05/01 08:26:00;;;;;;;19.52;13.45;;;;;;;17.85;58.71;101096.03;4955697;28;20166;-78
2023/05/01 08:28:27;;;;;;;16.45;11.13;;;;;;;17.79;58.67;101085.94;4931271;28;20062;-80
2023/05/01 08:30:54;;;;;;;13.82;10.55;;;;;;;17.48;58.24;101027.63;4938285;28;20051;-79
2023/05/01 08:33:24;;;;;;;15.13;9.45;;;;;;;17.76;58.41;101076.38;4927392;28;20374;-80
2023/05/01 08:35:52;;;;;;;13.90;9.40;;;;;;;17.83;58.64;101065.81;4939905;28;20552;-80
2023/05/01 08:38:19;;;;;;;11.70;8.93;;;;;;;17.90;57.89;101059.59;4942478;28;20053;-81
2023/05/01 08:40:53;;;;;;;10.38;9.27;;;;;;;17.32;57.97;100965.94;4957633;28;20456;-83
2023/05/01 08:43:21;;;;;;;10.75;8.75;;;;;;;17.96;57.93;101082.22;4925594;28;20203;-83
2023/05/01 08:45:50;;;;;;;11.43;9.25;;;;;;;17.47;57.81;100997.25;4938495;28;20074;-82
2023/05/01 08:48:28;;;;;;;12.68;9.48;;;;;;;17.96;57.14;101084.91;4926587;28;20143;-83
2023/05/01 08:51:18;;;;;;;10.85;8.35;;;;;;;18.06;57.43;101093.63;4919098;28;20062;-83
2023/05/01 08:53:51;;;;;;;10.77;7.80;;;;;;;17.64;57.87;101018.69;4902608;28;20220;-82
2023/05/01 08:56:20;;;;;;;;;;;;;;;18.19;58.27;101089.53;4932878;28;20050;-83
2023/05/01 08:58:52;;;;;;;8.90;7.65;;;;;;;18.13;58.40;101088.38;4930417;28;20316;-82
2023/05/01 09:01:22;;;;;;;11.95;8.02;;;;;;;17.64;57.69;101027.56;4939461;28;20053;-82
2023/05/01 09:03:56;;;;;;;15.32;8.80;;;;;;;16.82;57.75;100896.31;4921331;28;20461;-83
2023/05/01 09:06:27;;;;;;;13.38;9.00;;;;;;;17.58;57.54;101012.16;4931528;28;20058;-83
2023/05/01 09:08:57;;;;;;;10.27;8.15;;;;;;;17.15;57.86;100949.88;4941414;28;20058;-83
2023/05/01 09:11:25;;;;;;;9.65;7.90;;;;;;;18.08;58.16;101096.97;4944488;28;20157;-83
2023/05/01 09:13:52;;;;;;;9.60;8.40;;;;;;;17.80;58.06;101084.94;4948816;28;20508;-84
2023/05/01 09:16:19;;;;;;;9.50;7.75;;;;;;;17.62;58.18;101053.78;4950308;28;20445;-82
2023/05/01 09:18:46;;;;;;;8.73;7.93;;;;;;;18.02;58.06;101100.34;4938101;28;20278;-84
2023/05/01 09:21:14;;;;;;;10.55;8.48;;;;;;;18.00;58.15;101109.59;4949351;28;20058;-84
2023/05/01 09:23:50;;;;;;;10.75;8.85;;;;;;;18.01;58.28;101106.75;4955615;28;20073;-80
2023/05/01 09:26:17;;;;;;;11.60;9.02;;;;;;;18.01;58.15;101104.06;4956978;28;20817;-80
2023/05/01 09:28:47;;;;;;;9.82;7.63;;;;;;;18.06;58.01;101114.25;4933286;28;20379;-82
2023/05/01 09:31:34;;;;;;;9.60;8.60;;;;;;;18.09;57.91;101105.88;4939064;28;20050;-83
2023/05/01 09:34:05;;;;;;;14.75;8.13;;;;;;;18.12;58.09;101089.41;4912606;29;20501;-82
2023/05/01 09:36:33;;;;;;;14.70;8.50;;;;;;;18.18;58.01;101112.03;4934147;28;20055;-82
2023/05/01 09:39:03;;;;;;;9.93;8.07;;;;;;;18.08;58.23;101096.13;4967226;28;20058;-83
2023/05/01 09:41:32;;;;;;;10.02;8.88;;;;;;;17.98;57.77;101079.38;4938006;28;20054;-81
2023/05/01 09:44:08;;;;;;;12.23;8.57;;;;;;;18.12;58.41;101092.09;4922188;28;20297;-82
2023/05/01 09:46:48;;;;;;;8.98;8.00;;;;;;;18.22;57.88;101102.63;4913405;28;20243;-82
2023/05/01 09:49:49;;;;;;;13.43;8.48;;;;;;;18.14;57.09;101080.16;4901332;28;20051;-82
2023/05/01 09:52:32;;;;;;;11.98;7.60;;;;;;;18.44;56.83;101101.84;4901667;28;20347;-82
2023/05/01 09:55:23;;;;;;;10.68;7.70;;;;;;;18.28;56.22;101085.81;4917420;28;20120;-82
2023/05/01 09:58:06;;;;;;;9.13;7.63;;;;;;;18.44;55.49;101096.47;4896320;28;20261;-82
2023/05/01 10:00:51;;;;;;;7.57;6.85;;;;;;;17.85;56.09;101026.22;4898469;28;20057;-83
2023/05/01 10:03:27;;;;;;;9.18;7.63;;;;;;;18.36;56.01;101112.66;4917776;28;20051;-82
2023/05/01 10:06:08;;;;;;;9.48;7.63;;;;;;;18.05;55.97;101065.06;4909254;28;20215;-83
2023/05/01 10:08:46;;;;;;;14.88;9.30;;;;;;;17.62;56.92;100973.25;4922580;28;20046;-83
2023/05/01 10:11:13;;;;;;;11.93;7.88;;;;;;;18.37;56.09;101095.50;4940662;28;20462;-82
2023/05/01 10:13:41;;;;;;;9.60;7.47;;;;;;;18.45;55.98;101103.53;4933729;28;20061;-79
2023/05/01 10:16:27;;;;;;;11.00;6.93;;;;;;;18.06;55.97;101036.34;4945560;28;20125;-79
2023/05/01 10:19:04;;;;;;;8.85;7.35;;;;;;;18.39;55.55;101082.72;4946216;28;20059;-80
2023/05/01 10:21:32;;;;;;;8.98;7.80;;;;;;;18.49;55.72;101099.47;4955098;28;20050;-82
2023/05/01 10:24:02;;;;;;;12.30;8.13;;;;;;;18.49;56.01;101099.47;4935184;28;20478;-82
2023/05/01 10:26:33;;;;;;;10.93;7.43;;;;;;;18.55;56.42;101090.69;4933556;28;20047;-82
2023/05/01 10:29:04;;;;;;;7.90;6.93;;;;;;;18.22;56.58;101032.75;4910331;28;20525;-81
2023/05/01 10:31:31;;;;;;;9.48;7.18;;;;;;;18.10;55.46;100997.38;4930057;28;20047;-82
2023/05/01 10:34:02;;;;;;;8.70;6.90;;;;;;;18.67;55.26;101075.00;4940904;28;20362;-82
2023/05/01 10:36:53;;;;;;;8.43;7.43;;;;;;;18.61;56.37;101083.78;4917109;28;20465;-83
2023/05/01 10:39:32;;;;;;;;;;;;;;;18.49;56.08;101077.94;4902277;28;20157;-83
2023/05/01 10:42:04;;;;;;;11.48;8.05;;;;;;;18.36;56.34;101053.50;4948141;28;19926;-82
2023/05/01 10:44:33;;;;;;;8.02;7.03;;;;;;;18.23;56.18;101042.47;4923256;28;20055;-82
2023/05/01 10:47:24;;;;;;;7.18;6.45;;;;;;;18.60;55.10;101083.97;4937138;28;20137;-81
2023/05/01 10:50:11;;;;;;;11.15;7.20;;;;;;;18.52;56.00;101085.69;4943473;28;20046;-82
2023/05/01 10:53:10;;;;;;;8.52;7.70;;;;;;;18.49;57.16;101086.00;4940367;28;20046;-80
2023/05/01 10:55:42;;;;;;;9.90;7.05;;;;;;;18.50;57.74;101085.03;4930182;28;20464;-80
2023/05/01 10:58:13;;;;;;;8.93;6.60;;;;;;;18.43;57.22;101041.03;4926508;28;20059;-80
2023/05/01 11:00:40;;;;;;;10.03;6.70;;;;;;;18.68;57.46;101081.22;4939511;28;20055;-79
2023/05/01 11:03:26;;;;;;;10.68;7.25;;;;;;;18.32;58.60;101039.56;4944444;28;20054;-81
2023/05/01 11:05:59;;;;;;;8.35;6.22;;;;;;;18.73;57.63;101078.81;4932552;28;20264;-79
2023/05/01 11:08:30;;;;;;;9.90;5.68;;;;;;;18.45;56.71;101038.19;4940711;28;20058;-80
2023/05/01 11:10:57;;;;;;;6.72;5.45;;;;;;;18.53;56.82;101073.91;4937384;28;20117;-81
2023/05/01 11:14:03;;;;;;;7.22;6.07;;;;;;;18.55;57.08;101065.69;4965684;28;20875;-81
2023/05/01 11:16:38;;;;;;;7.18;5.22;;;;;;;18.62;55.74;101066.63;4927973;28;20555;-80
2023/05/01 11:19:47;;;;;;;10.88;5.63;;;;;;;18.68;55.76;101067.78;4930940;28;20058;-79
2023/05/01 11:22:29;;;;;;;8.95;5.47;;;;;;;18.49;55.21;101045.69;4928848;28;20496;-79
2023/05/01 11:24:56;;;;;;;7.90;5.05;;;;;;;18.26;55.57;101013.41;4953707;28;20583;-79
2023/05/01 11:27:25;;;;;;;5.65;4.85;;;;;;;18.52;54.90;101061.50;4938482;28;20300;-80
2023/05/01 11:29:52;;;;;;;7.88;4.57;;;;;;;18.55;55.55;101055.75;4946376;28;20824;-83
2023/05/01 11:32:25;;;;;;;6.85;4.88;;;;;;;18.51;54.84;101053.59;4955056;28;20406;-82
2023/05/01 11:34:59;;;;;;;6.15;4.38;;;;;;;18.49;56.15;101051.06;4946074;28;20069;-83
2023/05/01 11:37:43;;;;;;;8.45;5.40;;;;;;;17.84;56.50;100955.56;4954170;28;20444;-83
2023/05/01 11:40:23;;;;;;;9.80;5.82;;;;;;;18.42;57.63;101044.72;4942760;28;20051;-82